Time;durP1;ratioP1;P1;durP2;ratioP2;P2;SDS_P1;SDS_P2;PMS_P1;PMS_P2;Temp;Humidity;BMP_temperature;BMP_pressure;BME280_temperature;BME280_humidity;BME280_pressure;Samples;Min_cycle;Max_cycle;Signal;HPM_P1;HPM_P2
2022/05/06 00:01:37;;;;;;;6.90;5.18;;;20.60;59.50;;;;;;4942437;28;87693;-78
2022/05/06 00:04:04;;;;;;;6.05;5.38;;;20.60;59.30;;;;;;4940003;28;88044;-78
2022/05/06 00:06:30;;;;;;;6.05;5.32;;;20.60;59.40;;;;;;4941573;28;91398;-79
2022/05/06 00:08:56;;;;;;;4.82;4.38;;;20.60;59.40;;;;;;4938032;28;87242;-79
2022/05/06 00:11:31;;;;;;;6.35;5.35;;;20.60;59.30;;;;;;4944354;28;87350;-78
2022/05/06 00:13:57;;;;;;;5.90;4.70;;;20.60;59.40;;;;;;4941897;28;87642;-78
2022/05/06 00:16:25;;;;;;;5.70;4.63;;;20.60;59.40;;;;;;4935324;28;90321;-79
2022/05/06 00:18:52;;;;;;;4.88;4.10;;;20.50;59.40;;;;;;4941285;28;88111;-79
2022/05/06 00:21:18;;;;;;;6.35;4.95;;;20.60;59.30;;;;;;4946620;28;87650;-79
2022/05/06 00:23:44;;;;;;;5.47;4.95;;;20.60;59.50;;;;;;4942467;28;87691;-78
2022/05/06 00:26:10;;;;;;;5.90;4.97;;;20.50;59.40;;;;;;4942031;28;88051;-78
2022/05/06 00:28:36;;;;;;;4.78;4.38;;;20.50;59.50;;;;;;4939128;28;87285;-78
2022/05/06 00:31:03;;;;;;;5.35;4.85;;;20.50;59.50;;;;;;4944965;28;87733;-78
2022/05/06 00:33:29;;;;;;;5.78;4.88;;;20.50;60.10;;;;;;4940394;28;87582;-78
2022/05/06 00:35:57;;;;;;;5.60;5.05;;;20.50;59.40;;;;;;4944165;28;86349;-79
2022/05/06 00:38:23;;;;;;;5.03;4.57;;;20.50;59.50;;;;;;4944059;28;87731;-78
2022/05/06 00:40:49;;;;;;;5.47;4.97;;;20.50;59.40;;;;;;4944131;28;87564;-79
2022/05/06 00:43:15;;;;;;;6.53;5.40;;;20.50;59.60;;;;;;4942829;28;88716;-79
2022/05/06 00:46:14;;;;;;;7.13;5.10;;;20.50;59.30;;;;;;4947403;28;88738;-78
2022/05/06 00:48:43;;;;;;;4.88;4.38;;;20.50;59.40;;;;;;4940593;28;88084;-78
2022/05/06 00:51:09;;;;;;;5.30;4.75;;;20.50;59.40;;;;;;4945572;28;87075;-78
2022/05/06 00:53:36;;;;;;;5.07;4.57;;;20.50;59.50;;;;;;4945530;28;87780;-78
2022/05/06 00:56:03;;;;;;;5.32;4.82;;;20.50;59.40;;;;;;4944552;28;87764;-79
2022/05/06 00:58:31;;;;;;;5.18;4.65;;;20.50;59.30;;;;;;4946287;28;87398;-78
2022/05/06 01:00:57;;;;;;;5.07;4.57;;;20.50;59.30;;;;;;4946887;28;86726;-78
2022/05/06 01:03:22;;;;;;;5.05;4.55;;;20.50;59.20;;;;;;4939809;28;88098;-79
2022/05/06 01:05:51;;;;;;;5.18;4.68;;;20.50;59.30;;;;;;4948617;28;87361;-78
2022/05/06 01:08:16;;;;;;;4.78;4.38;;;20.40;59.40;;;;;;4948333;28;88435;-78
2022/05/06 01:10:50;;;;;;;6.03;5.13;;;20.40;59.40;;;;;;4948315;28;89318;-78
2022/05/06 01:13:18;;;;;;;5.68;4.93;;;20.50;59.20;;;;;;4945029;28;88558;-78
2022/05/06 01:15:44;;;;;;;5.00;4.45;;;20.40;59.40;;;;;;4941135;28;87891;-79
2022/05/06 01:18:12;;;;;;;5.22;4.72;;;20.40;59.30;;;;;;4945158;28;87318;-78
2022/05/06 01:20:42;;;;;;;5.00;4.50;;;20.40;59.20;;;;;;4941676;28;87174;-78
2022/05/06 01:23:08;;;;;;;5.00;4.10;;;20.40;59.20;;;;;;4943950;28;88416;-79
2022/05/06 01:25:34;;;;;;;5.63;5.05;;;20.50;59.30;;;;;;4945852;28;88281;-78
2022/05/06 01:28:05;;;;;;;5.03;4.50;;;20.40;59.30;;;;;;4943711;28;86875;-78
2022/05/06 01:30:42;;;;;;;4.90;4.50;;;20.40;59.40;;;;;;4949839;28;86943;-79
2022/05/06 01:33:11;;;;;;;4.80;4.40;;;20.40;59.40;;;;;;4948660;28;88638;-78
2022/05/06 01:35:40;;;;;;;4.77;4.37;;;20.40;59.40;;;;;;4942919;28;89233;-78
2022/05/06 01:38:10;;;;;;;4.90;4.47;;;20.40;59.40;;;;;;4944190;28;86990;-78
2022/05/06 01:40:41;;;;;;;;;;;20.40;59.30;;;;;;4946092;28;87354;-79
2022/05/06 01:43:11;;;;;;;5.75;4.60;;;20.40;59.20;;;;;;4944757;28;87797;-79
2022/05/06 01:45:37;;;;;;;;;;;20.40;59.20;;;;;;4944017;28;90889;-79
2022/05/06 01:48:04;;;;;;;5.43;4.30;;;20.40;59.20;;;;;;4947535;28;87091;-78
2022/05/06 01:50:35;;;;;;;5.35;4.82;;;20.40;59.20;;;;;;4949750;28;87463;-78
2022/05/06 01:53:01;;;;;;;5.05;4.65;;;20.40;59.10;;;;;;4945941;28;87782;-78
2022/05/06 01:55:27;;;;;;;4.78;4.25;;;20.40;59.80;;;;;;4941023;28;87294;-79
2022/05/06 01:57:53;;;;;;;4.95;4.45;;;20.40;59.10;;;;;;4940689;28;88517;-78
2022/05/06 02:00:19;;;;;;;5.57;4.97;;;20.40;59.20;;;;;;4941492;28;89172;-78
2022/05/06 02:02:44;;;;;;;4.95;4.45;;;20.40;59.10;;;;;;4990477;22;91481;-84
2022/05/06 02:05:24;;;;;;;5.15;4.60;;;20.40;59.30;;;;;;4963950;28;88190;-86
2022/05/06 02:07:52;;;;;;;4.50;4.10;;;20.30;59.20;;;;;;4979515;28;86907;-86
2022/05/06 02:10:20;;;;;;;4.88;4.38;;;20.30;59.30;;;;;;4960936;28;87581;-88
2022/05/06 02:12:46;;;;;;;5.03;4.55;;;20.30;59.20;;;;;;4967461;28;87859;-86
2022/05/06 02:15:13;;;;;;;4.90;4.40;;;20.40;59.20;;;;;;4966617;28;89237;-88
2022/05/06 02:17:39;;;;;;;4.80;4.30;;;20.30;59.20;;;;;;4967886;28;87533;-87
2022/05/06 02:20:07;;;;;;;4.72;4.25;;;20.30;59.10;;;;;;4963835;28;87473;-88
2022/05/06 02:22:33;;;;;;;5.32;4.82;;;20.30;59.30;;;;;;4968527;28;89850;-88
2022/05/06 02:24:59;;;;;;;5.38;4.50;;;20.30;59.20;;;;;;4960702;28;89652;-87
2022/05/06 02:27:25;;;;;;;5.07;4.35;;;20.30;59.70;;;;;;4966159;28;86953;-86
2022/05/06 02:35:20;;;;;;;4.85;4.43;;;20.30;59.00;;;;;;4963627;28;88186;-86
2022/05/06 02:37:45;;;;;;;5.47;4.90;;;20.30;59.00;;;;;;4963166;28;87671;-86
2022/05/06 02:40:12;;;;;;;5.20;4.50;;;20.30;59.10;;;;;;4961225;28;89542;-87
2022/05/06 02:42:37;;;;;;;4.78;4.30;;;20.30;59.10;;;;;;4964942;28;89957;-87
2022/05/06 02:45:04;;;;;;;8.27;4.80;;;20.30;59.20;;;;;;4965119;28;87003;-88
2022/05/06 02:47:30;;;;;;;5.15;4.38;;;20.30;59.10;;;;;;4979835;28;87876;-88
2022/05/06 02:49:56;;;;;;;6.45;4.75;;;20.30;59.10;;;;;;4962402;28;87134;-86
2022/05/06 02:52:22;;;;;;;4.65;4.20;;;20.30;59.10;;;;;;4962484;28;87780;-87
2022/05/06 02:54:48;;;;;;;4.38;3.97;;;20.30;59.10;;;;;;4964464;28;91220;-86
2022/05/06 02:57:14;;;;;;;4.78;4.38;;;20.30;59.00;;;;;;4964030;28;88109;-86
2022/05/06 02:59:40;;;;;;;5.28;4.78;;;20.30;59.00;;;;;;4963276;28;87489;-87
2022/05/06 03:02:06;;;;;;;4.60;4.20;;;20.30;59.10;;;;;;4961543;28;89372;-87
2022/05/06 03:04:32;;;;;;;6.53;4.82;;;20.30;59.20;;;;;;4965186;28;87485;-87
2022/05/06 03:06:58;;;;;;;4.72;4.32;;;20.30;59.10;;;;;;4963659;28;88150;-86
2022/05/06 03:09:24;;;;;;;5.22;4.72;;;20.30;59.10;;;;;;4967423;28;87715;-88
2022/05/06 03:11:50;;;;;;;5.15;4.65;;;20.30;59.00;;;;;;4966080;28;88980;-85
2022/05/06 03:14:34;;;;;;;4.93;4.53;;;20.30;59.00;;;;;;4962562;28;90424;-86
2022/05/06 03:16:59;;;;;;;4.68;4.28;;;20.30;59.00;;;;;;4965498;28;87465;-86
2022/05/06 03:19:25;;;;;;;4.53;4.13;;;20.30;59.10;;;;;;4962307;28;88503;-88
2022/05/06 03:21:54;;;;;;;4.85;4.43;;;20.30;59.20;;;;;;4964704;28;88766;-86
2022/05/06 03:24:20;;;;;;;4.53;4.07;;;20.30;59.10;;;;;;4965421;28;87426;-85
2022/05/06 03:26:45;;;;;;;5.65;4.30;;;20.30;59.20;;;;;;4963799;28;88370;-85
2022/05/06 03:29:12;;;;;;;4.40;4.00;;;20.30;59.10;;;;;;4964289;28;87550;-85
2022/05/06 03:31:39;;;;;;;4.63;4.22;;;20.30;59.10;;;;;;4966034;28;88215;-85
2022/05/06 03:34:05;;;;;;;5.53;5.03;;;20.30;59.20;;;;;;4963666;28;90673;-85
2022/05/06 03:36:32;;;;;;;5.18;4.18;;;20.30;59.10;;;;;;4965877;28;88949;-86
2022/05/06 03:38:58;;;;;;;4.93;4.53;;;20.20;59.10;;;;;;4965669;28;90176;-85
2022/05/06 03:41:25;;;;;;;4.53;4.13;;;20.20;59.10;;;;;;4966656;28;88253;-85
2022/05/06 03:43:50;;;;;;;4.93;4.45;;;20.20;59.00;;;;;;4965292;28;88171;-85
2022/05/06 03:46:16;;;;;;;5.05;4.55;;;20.20;59.00;;;;;;4964782;28;87609;-85
2022/05/06 03:48:42;;;;;;;4.70;4.30;;;20.30;59.00;;;;;;4963833;28;87415;-86
2022/05/06 03:51:21;;;;;;;5.22;4.00;;;20.20;59.00;;;;;;4966399;28;88238;-84
2022/05/06 03:53:50;;;;;;;5.20;4.47;;;20.20;59.20;;;;;;4967174;28;87543;-86
2022/05/06 03:56:16;;;;;;;5.00;4.50;;;20.20;59.10;;;;;;4966088;28;86972;-85
2022/05/06 03:58:42;;;;;;;5.20;4.70;;;20.20;58.90;;;;;;4966871;28;89059;-86
2022/05/06 04:01:08;;;;;;;4.97;4.45;;;20.20;58.80;;;;;;4962530;28;88484;-86
2022/05/06 04:03:34;;;;;;;4.75;4.35;;;20.20;59.00;;;;;;4964206;28;91272;-84
2022/05/06 04:06:00;;;;;;;4.72;4.30;;;20.20;58.80;;;;;;4966914;28;87613;-85
2022/05/06 04:08:25;;;;;;;5.25;4.75;;;20.20;58.90;;;;;;4961478;28;87914;-86
2022/05/06 04:10:51;;;;;;;5.22;4.72;;;20.20;59.00;;;;;;4962256;28;88246;-85
2022/05/06 04:13:19;;;;;;;5.40;4.90;;;20.20;59.50;;;;;;4963182;28;87531;-86
2022/05/06 04:15:47;;;;;;;4.65;4.25;;;20.20;58.90;;;;;;4983493;28;87627;-85
2022/05/06 04:18:14;;;;;;;4.80;4.38;;;20.20;59.00;;;;;;4961493;28;87076;-84
2022/05/06 04:23:30;;;;;;;5.07;4.55;;;20.20;58.90;;;;;;4961525;28;87300;-83
2022/05/06 04:26:08;;;;;;;4.93;4.43;;;20.20;59.00;;;;;;4960775;28;88763;-84
2022/05/06 04:28:35;;;;;;;4.70;4.30;;;20.20;59.10;;;;;;4964478;28;87838;-85
2022/05/06 04:31:02;;;;;;;4.90;4.47;;;20.20;59.00;;;;;;4962934;28;87274;-85
2022/05/06 04:33:28;;;;;;;5.28;4.78;;;20.20;58.90;;;;;;4963186;28;89752;-84
2022/05/06 04:35:56;;;;;;;5.00;4.50;;;20.20;59.00;;;;;;4963972;28;87523;-86
2022/05/06 04:38:28;;;;;;;4.43;4.03;;;20.20;59.00;;;;;;4962674;28;88568;-84
2022/05/06 04:40:55;;;;;;;5.05;4.55;;;20.20;59.10;;;;;;4963682;28;88673;-85
2022/05/06 04:43:21;;;;;;;4.70;4.30;;;20.20;59.10;;;;;;4965275;28;91136;-85
2022/05/06 04:45:50;;;;;;;6.05;4.68;;;20.20;59.00;;;;;;4966119;28;87559;-86
2022/05/06 04:48:16;;;;;;;5.03;4.53;;;20.20;59.00;;;;;;4965131;28;88524;-85
2022/05/06 04:50:44;;;;;;;4.93;4.47;;;20.20;58.90;;;;;;4960435;28;91758;-84
2022/05/06 04:53:11;;;;;;;4.50;4.10;;;20.10;58.80;;;;;;4961077;28;88328;-85
2022/05/06 04:55:47;;;;;;;4.85;4.35;;;20.20;58.90;;;;;;4962904;28;87615;-84
2022/05/06 04:58:14;;;;;;;5.20;4.70;;;20.20;59.00;;;;;;4953715;28;89500;-84
2022/05/06 05:00:40;;;;;;;4.80;4.40;;;20.10;59.00;;;;;;4964395;28;89466;-83
2022/05/06 05:03:06;;;;;;;5.25;4.75;;;20.20;59.00;;;;;;4965222;28;87794;-84
2022/05/06 05:05:32;;;;;;;4.70;4.20;;;20.20;58.90;;;;;;4964857;28;87437;-84
2022/05/06 05:07:58;;;;;;;4.85;4.45;;;20.10;58.80;;;;;;4961082;28;89617;-85
2022/05/06 05:10:24;;;;;;;4.68;4.00;;;20.20;59.00;;;;;;4962041;28;87605;-86
2022/05/06 05:12:50;;;;;;;4.80;4.40;;;20.10;58.90;;;;;;4960402;28;89424;-85
2022/05/06 05:15:16;;;;;;;4.70;4.30;;;20.10;58.90;;;;;;4961720;28;88324;-85
2022/05/06 05:18:01;;;;;;;5.07;4.57;;;20.10;58.90;;;;;;4965566;28;87723;-85
2022/05/06 05:20:27;;;;;;;4.70;4.25;;;20.10;58.80;;;;;;4967379;28;88166;-85
2022/05/06 05:22:52;;;;;;;4.95;4.55;;;20.20;58.90;;;;;;4962204;28;87624;-84
2022/05/06 05:25:18;;;;;;;5.65;5.05;;;20.10;58.80;;;;;;4979401;28;87531;-86
2022/05/06 05:27:44;;;;;;;5.13;4.63;;;20.10;58.80;;;;;;4965390;28;88664;-86
2022/05/06 05:30:12;;;;;;;4.55;4.15;;;20.10;58.80;;;;;;4962531;28;90167;-85
2022/05/06 05:32:39;;;;;;;5.07;4.57;;;20.10;58.80;;;;;;4967980;28;87722;-86
2022/05/06 05:35:05;;;;;;;5.30;4.70;;;20.10;59.00;;;;;;4965300;28;87192;-85
2022/05/06 05:37:31;;;;;;;4.65;4.25;;;20.10;59.00;;;;;;4966150;28;88003;-85
2022/05/06 05:39:57;;;;;;;4.93;4.43;;;20.10;58.90;;;;;;4972553;28;88660;-85
2022/05/06 05:42:23;;;;;;;5.07;4.57;;;20.10;58.90;;;;;;4968314;28;88972;-87
2022/05/06 05:50:18;;;;;;;4.30;3.90;;;20.10;58.80;;;;;;4967510;28;87580;-86
2022/05/06 05:52:44;;;;;;;4.85;4.45;;;20.10;58.70;;;;;;4985643;28;90035;-86
2022/05/06 05:55:11;;;;;;;4.30;3.90;;;20.10;59.00;;;;;;4970077;28;87622;-86
2022/05/06 05:57:37;;;;;;;5.28;4.72;;;20.10;58.70;;;;;;4970753;28;86668;-85
2022/05/06 06:00:05;;;;;;;4.85;4.35;;;20.10;58.80;;;;;;4967056;28;88230;-86
2022/05/06 06:02:31;;;;;;;4.60;4.20;;;20.10;58.80;;;;;;4966304;28;87685;-86
2022/05/06 06:04:57;;;;;;;4.88;4.47;;;20.10;58.80;;;;;;4982330;28;88406;-86
2022/05/06 06:07:23;;;;;;;5.30;4.80;;;20.10;58.90;;;;;;4963579;28;87596;-85
2022/05/06 06:09:48;;;;;;;4.85;4.35;;;20.10;58.70;;;;;;4967902;28;87794;-84
2022/05/06 06:12:14;;;;;;;5.10;4.63;;;20.10;58.80;;;;;;4965156;28;87042;-86
2022/05/06 06:14:40;;;;;;;4.85;4.45;;;20.10;58.60;;;;;;4965686;28;87474;-86
2022/05/06 06:17:13;;;;;;;5.25;4.75;;;20.10;58.80;;;;;;4967331;28;88668;-84
2022/05/06 06:19:39;;;;;;;4.95;4.45;;;20.10;58.70;;;;;;4956521;28;88660;-86
2022/05/06 06:22:04;;;;;;;5.35;4.85;;;20.10;58.60;;;;;;4964500;28;90595;-86
2022/05/06 06:24:30;;;;;;;4.80;4.30;;;20.10;58.70;;;;;;4967064;28;86899;-83
2022/05/06 06:26:56;;;;;;;5.13;4.63;;;20.10;58.80;;;;;;4968264;28;87599;-84
2022/05/06 06:29:21;;;;;;;4.78;4.32;;;20.10;58.80;;;;;;4968092;28;88649;-87
2022/05/06 06:31:47;;;;;;;6.30;5.70;;;20.10;58.80;;;;;;4965279;28;88477;-87
2022/05/06 06:34:13;;;;;;;4.53;4.07;;;20.10;58.60;;;;;;4967063;28;87373;-91
2022/05/06 06:36:38;;;;;;;4.90;4.40;;;20.10;58.80;;;;;;4964906;28;88889;-89
2022/05/06 06:39:04;;;;;;;6.65;5.95;;;20.10;59.30;;;;;;4962744;28;90828;-87
2022/05/06 06:41:30;;;;;;;7.30;5.47;;;20.10;58.50;;;;;;4965503;28;87265;-89
2022/05/06 06:43:56;;;;;;;6.22;5.63;;;20.10;58.50;;;;;;4964299;28;87269;-87
2022/05/06 06:46:22;;;;;;;10.07;6.53;;;20.10;58.80;;;;;;4967363;28;87401;-87
2022/05/06 06:48:48;;;;;;;10.98;5.40;;;20.20;59.00;;;;;;4963250;28;90598;-84
2022/05/06 06:51:13;;;;;;;14.65;5.22;;;20.20;59.00;;;;;;4981371;28;88654;-85
2022/05/06 06:53:39;;;;;;;9.32;6.07;;;20.10;57.80;;;;;;4965768;28;88459;-85
2022/05/06 06:56:05;;;;;;;11.18;5.82;;;20.10;58.10;;;;;;4966666;28;88796;-84
2022/05/06 06:58:31;;;;;;;8.13;5.63;;;20.10;58.50;;;;;;4962854;28;88036;-83
2022/05/06 07:00:58;;;;;;;12.40;5.60;;;20.20;59.40;;;;;;4964194;28;88456;-85
2022/05/06 07:03:33;;;;;;;10.40;6.60;;;20.20;59.60;;;;;;4959818;28;87934;-82
2022/05/06 07:14:11;;;;;;;7.65;6.13;;;20.20;60.10;;;;;;4962178;28;87475;-83
2022/05/06 07:16:39;;;;;;;11.20;5.97;;;20.20;60.20;;;;;;4957538;28;89998;-83
2022/05/06 07:19:05;;;;;;;9.50;6.15;;;20.20;59.90;;;;;;4960894;28;88996;-84
2022/05/06 07:21:31;;;;;;;11.02;6.20;;;20.20;59.90;;;;;;4963427;28;88450;-82
2022/05/06 07:23:56;;;;;;;7.38;5.97;;;20.20;59.90;;;;;;4961448;28;88065;-82
2022/05/06 07:26:23;;;;;;;6.70;6.07;;;20.10;60.10;;;;;;4960584;28;89176;-84
2022/05/06 07:28:48;;;;;;;8.15;5.88;;;20.10;60.10;;;;;;4963019;28;88926;-85
2022/05/06 07:31:14;;;;;;;8.18;6.13;;;20.10;60.30;;;;;;4922281;28;90712;-83
2022/05/06 07:33:40;;;;;;;9.95;5.93;;;20.10;60.40;;;;;;4921688;28;87258;-83
2022/05/06 07:36:05;;;;;;;7.95;5.80;;;20.10;60.10;;;;;;4923268;28;88924;-88
2022/05/06 07:38:32;;;;;;;12.30;6.05;;;20.20;60.40;;;;;;4924912;28;87076;-84
2022/05/06 07:40:59;;;;;;;7.63;6.10;;;20.20;60.40;;;;;;4926349;28;87692;-85
2022/05/06 07:43:25;;;;;;;8.65;6.32;;;20.20;59.90;;;;;;4931536;28;88162;-85
2022/05/06 07:45:50;;;;;;;13.13;6.28;;;20.10;59.80;;;;;;4925185;28;88007;-84
2022/05/06 07:48:18;;;;;;;7.65;6.00;;;20.20;60.00;;;;;;4927100;28;86914;-87
2022/05/06 07:50:44;;;;;;;12.18;6.90;;;20.20;60.20;;;;;;4930227;28;87479;-88
2022/05/06 07:53:15;;;;;;;26.42;8.57;;;20.20;60.30;;;;;;4925799;28;87331;-84
2022/05/06 07:55:41;;;;;;;34.75;11.27;;;20.20;59.90;;;;;;4920483;28;89730;-83
2022/05/06 07:58:13;;;;;;;23.90;9.20;;;20.20;60.20;;;;;;4920807;28;91163;-85
2022/05/06 08:00:38;;;;;;;28.85;9.18;;;20.20;60.20;;;;;;4920517;28;90398;-85
2022/05/06 08:05:56;;;;;;;34.70;11.63;;;20.20;59.40;;;;;;4925616;28;87982;-86
2022/05/06 08:08:22;;;;;;;47.25;12.77;;;20.20;59.90;;;;;;4923378;28;88798;-87
2022/05/06 08:10:48;;;;;;;65.60;19.45;;;20.10;59.90;;;;;;4943781;28;90058;-86
2022/05/06 08:13:14;;;;;;;45.72;17.15;;;20.20;59.00;;;;;;4920734;28;87368;-85
2022/05/06 08:15:39;;;;;;;33.97;13.43;;;20.20;59.50;;;;;;4920913;28;87261;-85
2022/05/06 08:18:05;;;;;;;31.55;13.88;;;20.20;59.70;;;;;;4938355;28;88991;-84
2022/05/06 08:20:39;;;;;;;36.80;14.13;;;20.20;59.70;;;;;;4932641;28;90324;-87
2022/05/06 08:23:06;;;;;;;40.17;15.02;;;20.20;59.70;;;;;;4927141;28;87040;-88
2022/05/06 08:25:32;;;;;;;38.97;14.52;;;20.10;59.70;;;;;;4921551;28;88883;-81
2022/05/06 08:27:57;;;;;;;44.70;15.73;;;20.10;59.90;;;;;;4921307;28;90658;-85
2022/05/06 08:30:24;;;;;;;42.60;14.88;;;20.10;59.80;;;;;;4922881;28;87844;-82
2022/05/06 08:32:51;;;;;;;52.75;16.73;;;20.20;60.00;;;;;;4920300;28;88115;-87
2022/05/06 08:35:19;;;;;;;54.47;17.80;;;20.20;60.40;;;;;;4922706;28;88478;-85
2022/05/06 08:37:46;;;;;;;53.40;19.52;;;20.20;60.50;;;;;;4925526;28;88133;-85
2022/05/06 08:40:22;;;;;;;50.28;20.77;;;20.20;61.60;;;;;;4924997;28;88356;-84
2022/05/06 08:42:49;;;;;;;53.22;21.15;;;20.20;62.10;;;;;;4926106;28;87701;-88
2022/05/06 08:50:58;;;;;;;53.03;24.13;;;20.20;64.10;;;;;;4924461;28;87825;-86
2022/05/06 08:53:29;;;;;;;52.30;25.10;;;20.20;65.00;;;;;;4927069;28;86960;-87
2022/05/06 08:55:56;;;;;;;39.92;19.05;;;20.20;65.90;;;;;;4927890;28;87316;-88
2022/05/06 08:58:24;;;;;;;46.78;18.92;;;20.20;64.30;;;;;;4923150;28;89636;-84
2022/05/06 09:00:50;;;;;;;57.28;24.98;;;20.20;63.70;;;;;;4918636;28;89843;-85
2022/05/06 09:03:24;;;;;;;53.08;25.08;;;20.20;66.40;;;;;;4927567;28;87575;-85
2022/05/06 09:05:54;;;;;;;56.80;27.40;;;20.30;66.80;;;;;;4927453;28;87260;-87
2022/05/06 09:08:21;;;;;;;58.70;25.48;;;20.20;67.10;;;;;;4922403;28;89605;-83
2022/05/06 09:11:04;;;;;;;58.38;25.10;;;20.20;67.40;;;;;;4924417;28;87547;-84
2022/05/06 09:13:32;;;;;;;52.85;24.85;;;20.20;67.20;;;;;;4923833;28;90167;-83
2022/05/06 09:16:42;;;;;;;60.80;25.13;;;20.20;66.80;;;;;;4926074;28;87027;-87
2022/05/06 09:19:09;;;;;;;;;;;20.20;66.60;;;;;;4927448;28;88058;-87
2022/05/06 09:21:36;;;;;;;56.50;26.25;;;20.20;66.90;;;;;;4925949;28;87359;-86
2022/05/06 09:24:20;;;;;;;56.22;25.73;;;20.20;67.00;;;;;;4928108;28;88218;-86
2022/05/06 09:27:10;;;;;;;53.88;24.65;;;20.20;66.90;;;;;;4921829;28;87317;-84
2022/05/06 09:29:44;;;;;;;56.20;25.42;;;20.20;65.90;;;;;;4925764;28;90977;-84
2022/05/06 09:32:20;;;;;;;49.08;23.77;;;20.30;64.70;;;;;;4925209;28;87690;-84
2022/05/06 09:34:53;;;;;;;50.30;24.35;;;20.20;63.70;;;;;;4926341;28;87124;-85
2022/05/06 09:37:29;;;;;;;52.55;24.30;;;20.30;65.50;;;;;;4925248;28;89363;-86
2022/05/06 09:40:27;;;;;;;48.35;23.02;;;20.30;65.80;;;;;;4928540;28;88069;-87
2022/05/06 09:42:55;;;;;;;47.13;23.88;;;20.30;65.20;;;;;;4928132;28;88203;-87
2022/05/06 09:45:37;;;;;;;49.00;23.53;;;20.30;65.10;;;;;;4928307;28;88253;-84
2022/05/06 09:48:04;;;;;;;47.92;23.13;;;20.30;65.20;;;;;;4934528;28;87771;-86
2022/05/06 09:50:48;;;;;;;48.90;23.38;;;20.30;65.10;;;;;;4923914;28;90693;-87
2022/05/06 09:53:15;;;;;;;54.92;22.70;;;20.30;65.30;;;;;;4925651;28;91042;-84
2022/05/06 09:55:46;;;;;;;54.00;23.25;;;20.30;65.50;;;;;;4927468;28;86887;-85
2022/05/06 09:58:13;;;;;;;39.70;21.73;;;20.30;65.20;;;;;;4923879;28;88051;-83
2022/05/06 10:00:39;;;;;;;44.13;22.02;;;20.40;65.30;;;;;;4926233;28;88869;-85
2022/05/06 10:03:06;;;;;;;46.28;23.23;;;20.30;65.50;;;;;;4922744;28;89324;-85
2022/05/06 10:05:36;;;;;;;37.55;21.38;;;20.40;66.00;;;;;;4941168;28;87101;-83
2022/05/06 10:08:10;;;;;;;40.40;21.40;;;20.30;66.50;;;;;;4926006;28;87580;-84
2022/05/06 10:10:44;;;;;;;45.10;21.25;;;20.40;66.50;;;;;;4928514;28;88182;-86
2022/05/06 10:13:22;;;;;;;47.28;22.75;;;20.40;67.30;;;;;;4926721;28;87378;-85
2022/05/06 10:15:49;;;;;;;43.72;21.85;;;20.40;66.70;;;;;;4923301;28;88018;-83
2022/05/06 10:18:35;;;;;;;37.70;20.00;;;20.40;67.00;;;;;;4926462;28;88271;-88
2022/05/06 10:21:11;;;;;;;38.85;17.60;;;20.40;67.00;;;;;;4926014;28;89427;-88
2022/05/06 10:23:58;;;;;;;41.42;17.88;;;20.40;64.20;;;;;;4923539;28;87555;-84
2022/05/06 10:26:33;;;;;;;41.03;19.58;;;20.40;64.40;;;;;;4924963;28;88118;-86
2022/05/06 10:34:30;;;;;;;36.10;19.55;;;20.40;65.50;;;;;;4930314;28;86975;-86
2022/05/06 10:37:14;;;;;;;35.60;19.33;;;20.40;64.90;;;;;;4923038;28;87560;-85
2022/05/06 10:39:40;;;;;;;32.00;19.67;;;20.30;64.70;;;;;;4928075;28;89538;-85
2022/05/06 10:42:16;;;;;;;31.70;19.02;;;20.30;64.70;;;;;;4928993;28;88843;-88
2022/05/06 10:44:49;;;;;;;37.35;18.90;;;20.30;64.60;;;;;;4926733;28;87843;-88
2022/05/06 10:47:15;;;;;;;33.63;19.35;;;20.30;64.40;;;;;;4926680;28;86932;-88
2022/05/06 10:49:46;;;;;;;34.70;17.83;;;20.30;64.50;;;;;;4941880;28;88055;-87
2022/05/06 10:52:24;;;;;;;35.30;18.92;;;20.30;64.40;;;;;;4929106;28;87809;-87
2022/05/06 10:55:00;;;;;;;38.97;19.05;;;20.30;64.20;;;;;;4928821;28;87741;-88
2022/05/06 10:57:28;;;;;;;37.78;19.25;;;20.40;63.80;;;;;;4943249;28;87025;-86
2022/05/06 10:59:57;;;;;;;32.55;18.58;;;20.40;63.50;;;;;;4927267;28;89803;-86
2022/05/06 11:02:27;;;;;;;34.08;18.75;;;20.40;64.00;;;;;;4929675;28;88246;-87
2022/05/06 11:04:54;;;;;;;32.80;17.38;;;20.40;63.90;;;;;;4929783;28;87612;-88
2022/05/06 11:07:19;;;;;;;33.17;17.67;;;20.40;63.80;;;;;;4926947;28;88531;-87
2022/05/06 11:09:46;;;;;;;34.83;19.10;;;20.30;64.00;;;;;;4925172;28;88258;-88
2022/05/06 11:12:37;;;;;;;29.98;18.35;;;20.30;63.70;;;;;;4944339;28;90292;-86
2022/05/06 11:15:05;;;;;;;29.45;16.90;;;20.30;63.60;;;;;;4943063;28;89875;-87
2022/05/06 11:17:32;;;;;;;30.52;17.88;;;20.30;63.60;;;;;;4930765;28;88015;-88
2022/05/06 11:20:27;;;;;;;27.40;17.10;;;20.30;63.60;;;;;;4929304;28;87359;-86
2022/05/06 11:22:57;;;;;;;32.55;17.63;;;20.30;63.50;;;;;;4926412;28;88892;-88
2022/05/06 11:25:24;;;;;;;27.52;17.65;;;20.30;63.50;;;;;;4925506;28;86850;-87
2022/05/06 11:27:52;;;;;;;28.13;16.88;;;20.30;63.40;;;;;;4929374;28;87063;-88
2022/05/06 11:30:24;;;;;;;28.90;15.85;;;20.30;63.50;;;;;;4928367;28;86995;-85
2022/05/06 11:32:52;;;;;;;30.63;17.55;;;20.30;62.80;;;;;;4925726;28;91690;-87
2022/05/06 11:35:32;;;;;;;26.90;18.27;;;20.30;63.10;;;;;;4930462;28;87731;-88
2022/05/06 11:37:59;;;;;;;27.30;17.67;;;20.30;63.00;;;;;;4929037;28;87513;-87
2022/05/06 11:42:58;;;;;;;25.55;16.10;;;20.30;63.10;;;;;;4927761;28;87104;-88
2022/05/06 11:48:13;;;;;;;29.77;17.58;;;20.30;62.70;;;;;;4927120;28;87085;-86
2022/05/06 11:50:40;;;;;;;30.90;16.60;;;20.30;62.80;;;;;;4929705;28;86553;-87
2022/05/06 11:53:08;;;;;;;24.23;15.32;;;20.30;62.80;;;;;;4927400;28;88109;-86
2022/05/06 11:55:46;;;;;;;24.42;16.65;;;20.30;62.60;;;;;;4925931;28;90483;-88
2022/05/06 11:58:16;;;;;;;27.50;17.42;;;20.30;62.70;;;;;;4928058;28;88718;-87
2022/05/06 12:00:44;;;;;;;28.48;17.30;;;20.30;62.50;;;;;;4927576;28;87365;-89
2022/05/06 12:03:11;;;;;;;30.52;16.30;;;20.30;62.30;;;;;;4927601;28;87707;-87
2022/05/06 12:05:38;;;;;;;29.20;16.27;;;20.30;62.50;;;;;;4926026;28;88005;-88
2022/05/06 12:08:05;;;;;;;25.77;16.45;;;20.30;62.30;;;;;;4927792;28;87175;-85
2022/05/06 12:10:57;;;;;;;27.63;17.42;;;20.30;62.40;;;;;;4928538;28;87283;-89
2022/05/06 12:13:32;;;;;;;26.08;16.23;;;20.40;62.40;;;;;;4926835;28;88128;-89
2022/05/06 12:16:08;;;;;;;31.27;16.00;;;20.40;63.10;;;;;;4922502;28;91330;-86
2022/05/06 12:18:34;;;;;;;34.10;17.67;;;20.40;62.00;;;;;;4926091;28;86942;-86
2022/05/06 12:21:24;;;;;;;31.67;16.33;;;20.40;62.10;;;;;;4926272;28;87863;-87
2022/05/06 12:23:52;;;;;;;25.00;16.83;;;20.40;62.20;;;;;;4927092;28;89066;-86
2022/05/06 12:26:33;;;;;;;23.92;15.65;;;20.40;62.30;;;;;;4926860;28;88777;-87
2022/05/06 12:29:00;;;;;;;27.00;16.20;;;20.40;62.40;;;;;;4925570;28;87623;-87
2022/05/06 12:31:35;;;;;;;28.67;16.20;;;20.40;62.50;;;;;;4923428;28;86920;-86
2022/05/06 12:34:08;;;;;;;22.98;15.60;;;20.40;62.40;;;;;;4923651;28;89756;-88
2022/05/06 12:36:39;;;;;;;28.33;16.13;;;20.40;62.40;;;;;;4925510;28;87259;-86
2022/05/06 12:39:22;;;;;;;26.40;16.80;;;20.40;62.40;;;;;;4925825;28;87947;-87
2022/05/06 12:41:48;;;;;;;27.85;15.15;;;20.40;62.40;;;;;;4926925;28;89529;-87
2022/05/06 12:44:23;;;;;;;25.95;15.27;;;20.30;62.70;;;;;;4944922;28;90373;-86
2022/05/06 12:46:49;;;;;;;25.50;15.68;;;20.40;62.60;;;;;;4928971;28;87665;-87
2022/05/06 12:52:11;;;;;;;23.98;14.82;;;20.40;62.50;;;;;;4925613;28;87138;-86
2022/05/06 12:54:37;;;;;;;23.02;15.02;;;20.40;62.50;;;;;;4929934;28;90812;-87
2022/05/06 12:57:04;;;;;;;23.25;15.05;;;20.40;62.60;;;;;;4932274;28;87798;-87
2022/05/06 12:59:30;;;;;;;25.98;16.48;;;20.40;62.50;;;;;;4943440;28;86970;-88
2022/05/06 13:01:56;;;;;;;23.58;15.45;;;20.30;62.20;;;;;;4927776;28;87401;-87
2022/05/06 13:04:21;;;;;;;25.33;15.55;;;20.40;62.50;;;;;;4928031;28;87899;-87
2022/05/06 13:06:48;;;;;;;22.77;14.80;;;20.40;62.40;;;;;;4928968;28;87593;-86
2022/05/06 13:09:14;;;;;;;23.17;14.50;;;20.40;62.30;;;;;;4928376;28;86978;-86
2022/05/06 13:11:40;;;;;;;24.77;14.63;;;20.40;62.40;;;;;;4927153;28;87430;-86
2022/05/06 13:14:07;;;;;;;22.48;14.45;;;20.40;62.10;;;;;;4924835;28;91840;-84
2022/05/06 13:16:35;;;;;;;23.45;15.95;;;20.40;62.30;;;;;;4924770;28;88824;-86
2022/05/06 13:19:02;;;;;;;23.30;13.60;;;20.40;62.50;;;;;;4924350;28;87314;-85
2022/05/06 13:21:27;;;;;;;23.02;14.10;;;20.40;62.40;;;;;;4929303;28;87555;-85
2022/05/06 13:23:53;;;;;;;22.15;15.05;;;20.40;62.50;;;;;;4941764;28;90506;-87
2022/05/06 13:26:19;;;;;;;22.30;13.70;;;20.40;62.50;;;;;;4926572;28;87721;-87
2022/05/06 13:28:44;;;;;;;23.00;13.90;;;20.40;62.30;;;;;;4925312;28;87879;-86
2022/05/06 13:31:15;;;;;;;22.92;14.40;;;20.40;62.30;;;;;;4926406;28;87944;-86